Birk — V2BF5 — position and weather

sailwx.info

Track history (hours):
 
Tides and Currents Weather Stations Pressure Air Temp Water Temp Dewpoint Dewpoint Depression Visibility Wind Speed Wind Dir Waves Ship Positions

Birk

Last reported at 2014-Oct-29 03:29 UTC. Time now 2014-Oct-30 23:54 UTC.
Position N 18°00' W 063°03'.

Length 132 m; draft 7.3 m.

Type: Ship. MMSI: 304535000.

Date/timePositionNaut miles runAvg speedWind from/ knotsBaromVisibWave heightAir tempDewpointWater temp
2014-Oct-29 03:29N 18°00' W 063°03'1 0.8
2014-Oct-29 02:33N 18°01' W 063°03'0 0.0
2014-Oct-29 01:21N 18°01' W 063°03'0 0.0
2014-Oct-29 00:33N 18°01' W 063°03'0 0.0
2014-Oct-28 23:07N 18°01' W 063°03'0 0.0
2014-Oct-28 22:07N 18°01' W 063°03'0 0.0
2014-Oct-28 21:23N 18°01' W 063°03'0 0.0
2014-Oct-28 20:33N 18°01' W 063°03'3 2.4
2014-Oct-28 19:29N 18°00' W 063°05'1111.4
2014-Oct-28 18:33N 17°59' W 063°17'1414.6
2014-Oct-28 17:33N 17°59' W 063°32'  
2014-Oct-25 17:33N 25°36' W 080°01'1211.6
2014-Oct-25 16:33N 25°46' W 080°08'2 0.1
2014-Oct-24 10:24N 25°46' W 080°10'6 7.4
2014-Oct-24 09:33N 25°47' W 080°03'4 4.0
2014-Oct-24 08:33N 25°46' W 079°59'  
Track history (hours):
 
Tides and Currents Weather Stations Pressure Air Temp Water Temp Dewpoint Dewpoint Depression Visibility Wind Speed Wind Dir Waves Ship Positions

Birk

Last reported at 2014-Oct-29 03:29 UTC. Time now 2014-Oct-30 23:54 UTC.
Position N 18°00' W 063°03'.

Length 132 m; draft 7.3 m.

Type: Ship. MMSI: 304535000.

Date/timePositionNaut miles runAvg speedWind from/ knotsBaromVisibWave heightAir tempDewpointWater temp
2014-Oct-29 03:29N 18°00' W 063°03'1 0.8
2014-Oct-29 02:33N 18°01' W 063°03'0 0.0
2014-Oct-29 01:21N 18°01' W 063°03'0 0.0
2014-Oct-29 00:33N 18°01' W 063°03'0 0.0
2014-Oct-28 23:07N 18°01' W 063°03'0 0.0
2014-Oct-28 22:07N 18°01' W 063°03'0 0.0
2014-Oct-28 21:23N 18°01' W 063°03'0 0.0
2014-Oct-28 20:33N 18°01' W 063°03'3 2.4
2014-Oct-28 19:29N 18°00' W 063°05'1111.4
2014-Oct-28 18:33N 17°59' W 063°17'1414.6
2014-Oct-28 17:33N 17°59' W 063°32'  
2014-Oct-25 17:33N 25°36' W 080°01'1211.6
2014-Oct-25 16:33N 25°46' W 080°08'2 0.1
2014-Oct-24 10:24N 25°46' W 080°10'6 7.4
2014-Oct-24 09:33N 25°47' W 080°03'4 4.0
2014-Oct-24 08:33N 25°46' W 079°59'  

Dump ship's entire track history